Create Custom Reports and Graphics: Custom Report

Upper Lake

Current Conditions

1/20/21 6:00 PM (-08:00)
Updated Every 15 Minutes
Temp 50.3 °F   8.3
Daily Max Temp 63.2 °F   1.1
Daily Min Temp 27.8 °F   19.8
Daily Rain 0.00 In
RH 43 %   32
Dew Pt 28.4 °F   23.7
Wet Bulb 41.0 °F   1.1
Wind Dir N | 10 °
Wind Spd 3.3 mph   6.2
Wind Gust 6.0 mph   22.0
Leaf Wet 0.0 mins
BatVolt 12.7 V   0.0

Today & Yesterday

Upper Lake

1/20/21 6:00 PM (-08:00)
Updated Every 15 Minutes
Daily Max Temp 63.2 °F   1.1
Daily Min Temp 27.8 °F   19.8
Daily Max Wind 12.3 mph   18.0
Time of Max Wind 1441
Max Wind Dir WNW | 289 °
Daily Leaf Wet Hrs 0.0 hrs   0.0
Daily Rain 0.00 In
Yesterday's Max Temp 62.0 °F
Yesterday’s Min Temp 37.6 °F
Yesterday's Max Wind 30.3 mph
Leaf Wet Hrs Yest 0.0 Hours
Yesterday's Rainfall 0.00 In

Rainfall Report

Upper Lake

1/20/21 6:00 PM (-08:00)
Updated Every 15 Minutes
Latest Rain 0.00 In
Daily Rain 0.00 In
Yesterday's Rainfall 0.00 In
Monthly Rain 1.74 In
Seasonal Rainfall 5.88 In

Last 48 Hours

Upper Lake

Hourly Data | America/Los_Angeles
as of 1/20/21 6:05 PM PST
Date & Time Temp (°F) Temp2 (°F) RH (%) Dew Pt (°F) Wet Bulb (°F) Wind Dir (°) Wind Spd (mph) Wind Gust (mph) Leaf Wet (mins) Latest Rain (In) Daily Rain (In) Daily Max Temp (°F) Daily Min Temp (°F) Daily Leaf Wet Hrs (hrs)
1/20/21 - 1800 51.8 51.4 40 28.0 41.6 NNW | 339 3.0 6.0 0.0 0.00 0.00 63.2 27.8 0.0
1/20/21 - 1700 60.4 60.1 23 22.0 43.9 WNW | 283 4.2 9.8 0.0 0.00 0.00 63.2 27.8 0.0
1/20/21 - 1600 62.4 62.3 19 19.7 44.2 WNW | 288 5.1 11.4 0.0 0.00 0.00 63.2 27.8 0.0
1/20/21 - 1500 62.5 62.6 18 18.8 44.1 WNW | 290 5.6 12.3 0.0 0.00 0.00 63.2 27.8 0.0
1/20/21 - 1400 61.1 62.1 21 20.3 43.8 SW | 222 2.5 8.2 0.0 0.00 0.00 62.7 27.8 0.0
1/20/21 - 1300 57.6 58.9 25 22.2 42.7 SE | 131 1.7 5.5 0.0 0.00 0.00 59.7 27.8 0.0
1/20/21 - 1200 52.2 53.9 39 27.7 41.7 SSE | 152 0.9 4.7 0.0 0.00 0.00 55.6 27.8 0.0
1/20/21 - 1100 47.9 49.4 47 28.4 39.8 SE | 132 1.7 4.9 0.0 0.00 0.00 49.7 27.8 0.0
1/20/21 - 1000 40.2 42.4 65 29.0 35.7 WNW | 293 0.1 1.2 0.0 0.00 0.00 45.1 27.8 0.0
1/20/21 - 0900 31.7 32.8 93 29.8 30.9 WNW | 301 0.2 2.0 0.0 0.00 0.00 37.7 27.8 0.0
1/20/21 - 0800 28.2 28.2 97 27.6 27.9 NNW | 329 0.4 2.4 0.0 0.00 0.00 37.7 27.8 0.0
1/20/21 - 0700 28.7 28.5 94 27.2 28.0 NW | 318 0.6 2.8 0.0 0.00 0.00 37.7 27.9 0.0
1/20/21 - 0600 29.5 29.5 92 27.5 28.7 NW | 319 0.8 3.2 0.0 0.00 0.00 37.7 28.8 0.0
1/20/21 - 0500 29.9 29.8 92 27.7 29.0 NW | 307 1.0 3.5 0.0 0.00 0.00 37.7 29.4 0.0
1/20/21 - 0400 31.6 31.7 85 27.7 30.1 W | 271 0.5 3.2 0.0 0.00 0.00 37.7 30.9 0.0
1/20/21 - 0300 32.5 32.4 85 28.4 30.9 N | 353 1.0 4.4 0.0 0.00 0.00 37.7 31.6 0.0
1/20/21 - 0200 34.4 34.2 75 27.3 31.7 WNW | 296 1.8 5.2 0.0 0.00 0.00 37.7 33.2 0.0
1/20/21 - 0100 36.0 35.6 71 27.4 32.7 NW | 314 0.4 4.4 0.0 0.00 0.00 37.7 34.9 0.0
1/20/21 - 0000 39.1 38.9 58 25.5 34.0 N | 355 2.5 6.8 0.0 0.00 0.00 62.0 37.6 0.0
1/19/21 - 2300 41.2 40.8 52 24.9 35.0 NW | 316 1.9 8.8 0.0 0.00 0.00 62.0 39.8 0.0
1/19/21 - 2200 49.1 48.3 30 17.6 37.5 NW | 315 2.4 6.8 0.0 0.00 0.00 62.0 42.5 0.0
1/19/21 - 2100 54.7 54.6 17 9.9 38.8 NNW | 340 3.5 10.8 0.0 0.00 0.00 62.0 47.6 0.0
1/19/21 - 2000 55.8 55.8 15 9.2 39.2 NNE | 28 5.5 18.1 0.0 0.00 0.00 62.0 47.6 0.0
1/19/21 - 1900 56.3 55.9 15 8.7 39.4 N | 11 3.0 10.3 0.0 0.00 0.00 62.0 47.6 0.0
1/19/21 - 1800 58.1 58.1 12 6.3 39.9 NNE | 24 9.2 28.6 0.0 0.00 0.00 62.0 47.6 0.0
1/19/21 - 1700 59.7 59.4 11 5.7 40.6 NNE | 15 6.4 16.4 0.0 0.00 0.00 62.0 47.6 0.0
1/19/21 - 1600 61.2 61.0 12 7.5 41.5 NNE | 31 5.1 14.4 0.0 0.00 0.00 62.0 47.6 0.0
1/19/21 - 1500 61.4 61.4 11 6.3 41.4 NNE | 33 6.1 18.8 0.0 0.00 0.00 61.9 47.6 0.0
1/19/21 - 1400 61.0 61.2 12 7.2 41.4 NNE | 27 5.9 14.6 0.0 0.00 0.00 61.7 47.6 0.0
1/19/21 - 1300 59.3 59.6 12 6.8 40.5 NNE | 24 7.2 22.6 0.0 0.00 0.00 60.7 47.6 0.0
1/19/21 - 1200 57.8 58.0 13 6.4 39.8 NNE | 27 8.5 27.5 0.0 0.00 0.00 58.6 47.6 0.0
1/19/21 - 1100 56.2 56.4 14 6.8 39.1 NE | 37 9.3 25.5 0.0 0.00 0.00 57.1 47.6 0.0
1/19/21 - 1000 54.3 54.4 16 8.3 38.3 NE | 44 6.7 23.4 0.0 0.00 0.00 56.3 47.6 0.0
1/19/21 - 0900 51.7 51.8 17 7.8 37.0 N | 8 4.7 21.4 0.0 0.00 0.00 56.3 47.6 0.0
1/19/21 - 0800 49.4 49.3 19 9.1 35.9 NE | 48 5.8 21.1 0.0 0.00 0.00 56.3 47.6 0.0
1/19/21 - 0700 49.9 49.9 19 9.0 36.2 NE | 38 9.5 24.6 0.0 0.00 0.00 56.3 47.6 0.0
1/19/21 - 0600 49.8 49.8 20 9.8 36.3 NE | 50 8.4 23.7 0.0 0.00 0.00 56.3 47.6 0.0
1/19/21 - 0500 50.5 50.4 19 10.1 36.7 ENE | 58 8.0 17.9 0.0 0.00 0.00 56.3 49.4 0.0
1/19/21 - 0400 51.4 51.4 18 9.1 37.0 ENE | 67 9.6 30.3 0.0 0.00 0.00 56.3 50.6 0.0
1/19/21 - 0300 52.3 52.2 17 8.2 37.3 ENE | 70 10.7 31.1 0.0 0.00 0.00 56.3 50.9 0.0
1/19/21 - 0200 53.4 53.3 15 6.6 37.6 E | 80 7.8 26.2 0.0 0.00 0.00 56.3 51.8 0.0
1/19/21 - 0100 55.1 55.0 12 3.2 38.1 ENE | 64 6.4 25.8 0.0 0.00 0.00 56.3 53.7 0.0
1/19/21 - 0000 57.9 57.6 11 3.7 39.5 NNW | 330 6.1 30.2 0.0 0.00 0.00 75.1 43.4 0.0
1/18/21 - 2300 59.9 59.8 10 2.0 40.2 NNW | 328 7.2 30.0 0.0 0.00 0.00 75.1 43.4 0.0
1/18/21 - 2200 60.4 60.4 11 5.6 40.9 NNW | 333 4.0 16.3 0.0 0.00 0.00 75.1 43.4 0.0
1/18/21 - 2100 52.4 52.7 28 18.6 39.5 NW | 308 2.8 14.4 0.0 0.00 0.00 75.1 43.4 0.0
1/18/21 - 2000 58.7 58.0 17 11.4 41.2 N | 360 2.6 11.4 0.0 0.00 0.00 75.1 43.4 0.0
1/18/21 - 1900 58.7 59.2 16 10.6 41.0 NNW | 344 3.9 14.7 0.0 0.00 0.00 75.1 43.4 0.0
1/18/21 - 1800 62.1 61.5 15 12.9 42.8 NNW | 335 3.4 7.7 0.0 0.00 0.00 75.1 43.4 0.0
Max 62.5 62.6 97 29.8 44.2 - 10.7 31.1 0.0 0.00 0.00 75.1 53.7 0.0
Avg 50.6 50.7 34 15.5 37.8 - 4.4 14.2 0.0 0.00 - - - -
Min 28.2 28.2 10 2.0 27.9 - 0.1 1.2 0.0 0.00 0.00 37.7 27.8 0.0
Total - - - - - - - - - 0.00 - - - -

Last 30 Days

Upper Lake

Daily Data | America/Los_Angeles
as of 1/20/21 6:05 PM PST
Date Daily Max Temp (°F) Time of Max Temp Daily Min Temp (°F) Time of Min Temp Daily Rain (In) Storm Total (In) Monthly Rain (In) Seasonal Rainfall (In) Wind Spd (mph) Daily Max Wind (mph) Time of Max Wind Max Wind Dir (°) Dew Pt (°F) Max RH (%) Min RH (%) Hrs <= 32F (hrs) Hrs <= 28F (hrs) Chilling <=45F (hrs) Chill Hrs 32-45F (hrs) Utah Chilling (Units) Chilling <=45F Seas (hrs) Chill Hrs 32-45 Seas (hrs) Utah Chilling Seas (Units) GDDs (DL) GDDs (Mx/Mn) Hrs 70-85F (hrs) Hrs > 95F (hrs) Degree Hrs (hrs) Max Temp2 (°F) Min Temp2 (°F) Bat Volt Min Day (V)
1/19/21 62.0 1505 37.6 2359 0.00 - 1.74 5.88 6.4 30.3 0316 ESE | 119 9.6 66 8 0.0 0.0 2.2 2.2 2.5 956 707 560 4.7 0.0 0.00 0.00 0.0 62.2 36.7 12.4
1/18/21 75.1 1356 43.4 0303 0.00 - 1.74 5.88 4.3 29.5 2306 NW | 304 19.2 100 4 0.0 0.0 2.5 2.5 0.0 954 705 559 10.5 9.3 5.73 0.00 49.0 76.5 42.6 12.4
1/17/21 77.0 1508 35.9 0739 0.00 - 1.74 5.88 1.5 12.1 0347 NNE | 31 44.0 100 25 0.0 0.0 8.9 8.9 3.0 952 702 559 6.2 6.4 3.46 0.00 35.5 76.9 35.7 12.3
1/16/21 70.9 1513 38.4 0745 0.00 - 1.74 5.88 2.6 19.6 1415 WNW | 297 45.0 100 34 0.0 0.0 7.3 7.3 3.0 943 694 557 5.8 4.7 2.12 0.00 18.3 71.0 38.3 12.4
1/15/21 65.9 1248 36.2 0749 0.00 - 1.74 5.88 1.4 11.2 1227 NNW | 327 44.9 100 36 0.0 0.0 9.3 9.3 3.0 935 686 555 3.5 1.0 0.00 0.00 0.0 66.3 36.0 12.4
1/14/21 66.2 1433 41.6 2359 0.00 0.28 1.74 5.88 2.8 16.8 1704 NNW | 327 47.2 100 50 0.0 0.0 7.8 7.8 5.0 926 677 552 2.6 3.9 0.00 0.00 0.0 66.3 41.4 12.4
1/13/21 64.2 1353 46.4 2039 0.12 0.28 1.74 5.88 1.9 14.2 1532 WNW | 297 52.6 100 86 0.0 0.0 0.0 0.0 3.5 918 669 548 3.4 5.3 0.00 0.00 0.0 64.9 46.2 12.3
1/12/21 50.0 1645 41.3 0319 0.16 0.16 1.62 5.76 0.8 6.2 0001 NNE | 23 46.7 100 99 0.0 0.0 8.8 8.8 17.5 918 669 546 0.0 0.0 0.00 0.00 0.0 49.9 41.0 12.2
1/11/21 56.1 1441 39.2 0312 0.00 - 1.46 5.60 2.1 8.4 1228 SSW | 203 43.4 100 65 0.0 0.0 17.2 17.2 7.5 909 660 528 0.4 0.0 0.00 0.00 0.0 56.5 38.8 12.3
1/10/21 53.6 1539 34.4 0210 0.05 - 1.46 5.60 1.3 6.7 1624 SE | 130 43.1 100 88 0.0 0.0 14.8 14.8 21.0 892 643 522 0.1 0.0 0.00 0.00 0.0 53.9 34.1 12.3
1/9/21 57.6 1359 28.7 0725 0.00 0.32 1.41 5.55 2.5 16.9 1459 NW | 314 35.4 100 31 6.4 0.0 16.5 10.1 6.5 877 628 502 1.2 0.0 0.00 0.00 0.0 58.3 28.7 12.4
1/8/21 55.6 1425 33.4 2340 0.21 0.32 1.41 5.55 3.5 19.6 1145 WNW | 299 41.6 100 40 0.0 0.0 10.4 10.4 0.0 861 618 496 0.9 0.0 0.00 0.00 0.0 55.7 33.1 12.4
1/7/21 52.9 1505 37.4 0559 0.11 0.26 1.20 5.34 2.4 17.2 2237 WNW | 290 42.4 100 66 0.0 0.0 16.0 16.0 21.5 850 608 490 0.2 0.0 0.00 0.00 0.0 54.3 37.4 12.2
1/6/21 45.8 1633 33.2 0659 0.26 0.26 1.09 5.23 1.5 27.5 1030 WNW | 302 40.6 100 99 0.0 0.0 19.4 19.4 16.5 834 592 470 0.0 0.0 0.00 0.00 0.0 46.0 32.9 12.3
1/5/21 53.0 1400 31.0 0505 0.00 0.83 0.83 4.97 1.9 9.7 1408 SE | 144 39.3 100 71 1.1 0.0 17.4 16.3 12.5 815 572 454 0.1 0.0 0.00 0.00 0.0 54.2 30.9 12.3
1/4/21 53.4 1127 36.2 2322 0.66 0.83 0.83 4.97 3.6 24.0 1307 WSW | 256 45.7 100 69 0.0 0.0 4.9 4.9 18.5 798 556 443 0.4 0.0 0.00 0.00 0.0 53.9 35.9 12.4
1/3/21 54.2 1352 44.4 0001 0.08 0.17 0.17 4.31 1.5 9.9 1357 SSE | 149 47.8 100 91 0.0 0.0 1.8 1.8 19.5 793 551 426 0.6 0.0 0.00 0.00 0.0 54.4 44.4 12.3
1/2/21 48.8 1207 44.2 2330 0.03 0.09 0.09 4.23 1.2 8.1 1336 ESE | 122 46.2 100 99 0.0 0.0 1.8 1.8 21.5 791 549 407 0.0 0.0 0.00 0.00 0.0 49.1 44.2 12.3
1/1/21 58.0 1453 30.5 0733 0.06 0.06 0.06 4.20 1.5 6.6 1806 NW | 312 38.0 100 41 2.5 0.0 11.5 9.0 7.5 789 548 386 0.8 0.0 0.00 0.00 0.0 59.1 30.4 12.3
12/31/20 52.7 1524 32.4 0747 0.00 0.15 3.19 4.14 4.5 17.2 0500 NW | 304 40.1 100 70 0.0 0.0 16.6 16.6 11.5 778 538 380 0.2 0.0 0.00 0.00 0.0 52.8 32.2 12.3
12/30/20 58.5 1332 27.6 0150 0.15 0.15 3.19 4.14 2.0 16.8 1438 NW | 324 34.1 100 16 8.5 0.7 15.3 6.8 8.0 761 522 369 0.9 0.0 0.00 0.00 0.0 59.1 27.4 12.3
12/29/20 60.6 1553 27.2 0730 0.00 - 3.04 3.99 1.5 7.1 0113 NW | 310 32.9 100 35 10.8 1.3 17.9 7.1 0.0 746 515 362 1.1 0.0 0.00 0.00 0.0 59.8 27.1 12.3
12/28/20 56.6 1601 29.8 0755 0.00 - 3.04 3.99 1.8 8.4 1715 WNW | 301 34.3 100 38 5.4 0.0 17.4 12.0 0.0 728 508 362 0.8 0.0 0.00 0.00 0.0 56.1 29.7 12.4
12/27/20 51.6 1534 32.6 0520 0.00 0.84 3.04 3.99 2.2 11.0 1355 SSE | 154 36.5 100 50 0.0 0.0 19.6 19.6 15.0 710 496 356 0.1 0.0 0.00 0.00 0.0 51.6 32.5 12.4
12/26/20 52.8 1416 35.0 2354 0.14 0.84 3.04 3.99 3.1 19.9 1243 NW | 317 42.6 100 59 0.0 0.0 11.9 11.9 20.5 691 476 342 0.3 0.0 0.00 0.00 0.0 53.2 34.9 12.2
12/25/20 51.9 0949 42.5 0131 0.70 0.70 2.90 3.85 2.2 18.3 1012 SSE | 148 42.7 100 51 0.0 0.0 2.9 2.9 19.5 679 464 322 0.0 0.0 0.00 0.00 0.0 52.0 42.4 12.3
12/24/20 60.0 1443 27.9 0418 0.00 - 2.20 3.15 2.1 12.2 1348 SSE | 149 30.5 100 24 9.0 0.0 14.2 5.2 6.0 676 462 304 1.4 0.0 0.00 0.00 0.0 60.0 27.8 12.3
12/23/20 62.2 1459 25.7 0724 0.00 - 2.20 3.15 1.5 7.4 1716 NNE | 31 27.7 100 13 12.5 4.2 17.8 5.3 0.0 662 456 299 1.5 0.0 0.00 0.00 0.0 62.8 25.6 12.3
12/22/20 57.0 1456 30.2 2351 0.00 - 2.20 3.15 3.2 16.9 0123 NW | 312 36.2 100 35 2.4 0.0 14.6 12.2 0.0 644 451 299 1.0 0.0 0.00 0.00 0.0 57.2 30.0 12.3
12/21/20 62.2 1343 28.8 0637 0.00 - 2.20 3.15 3.2 23.3 1723 NW | 309 38.9 100 37 6.8 0.0 12.7 5.9 5.0 629 439 299 2.0 0.0 0.00 0.00 0.0 63.0 28.6 12.3
Max 77.0 - 46.4 - 0.70 0.84 3.19 - 6.4 30.3 - - 52.6 100 99 12.5 4.2 19.6 19.6 21.5 - - - 10.5 9.3 5.73 0.00 49.0 76.9 46.2 12.4
Avg - - - - - 0.38 1.80 - 2.4 - - - 39.0 - - 2.2 0.2 11.3 9.1 9.2 - - - 1.7 1.0 0.38 0.00 - - - -
Min 45.8 - 25.7 - 0.00 0.06 0.06 - 0.8 6.2 - - 9.6 66 4 0.0 0.0 0.0 0.0 0.0 - - - 0.0 0.0 0.00 0.00 0.0 46.0 25.6 12.2
Total - - - - - - - - - - - - - - - 65.5 6.2 339.6 274.2 275.5 - - - 50.9 30.5 11.31 0.00 - - - -

Chilling & Growing Degree Days

Upper Lake

Daily Data | America/Los_Angeles
as of 1/20/21 6:05 PM PST
Date Chilling <=45F (hrs) Chill Hrs 32-45F (hrs) Utah Chilling (Units) Chilling <=45F Seas (hrs) Chill Hrs 32-45 Seas (hrs) Utah Chilling Seas (Units) GDDs (DL) GDDs (Mx/Mn)
1/19/21 2.2 2.2 2.5 956 707 560 4.7 0.0
1/18/21 2.5 2.5 0.0 954 705 559 10.5 9.3
1/17/21 8.9 8.9 3.0 952 702 559 6.2 6.4
1/16/21 7.3 7.3 3.0 943 694 557 5.8 4.7
1/15/21 9.3 9.3 3.0 935 686 555 3.5 1.0
1/14/21 7.8 7.8 5.0 926 677 552 2.6 3.9
1/13/21 0.0 0.0 3.5 918 669 548 3.4 5.3
Max 9.3 9.3 5.0 - - - 10.5 9.3
Avg 5.4 5.4 2.9 - - - 5.2 4.4
Min 0.0 0.0 0.0 - - - 2.6 0.0
Total 38.1 38.1 20.0 - - - 36.7 30.5
Calm: 0.1%

Upper Lake Climate Summary

Current Year

Current Year | Showing 1/1/21 - 1/19/21
as of 1/20/21 6:05 PM PST
Temperature (°F) Precip (in) Days
Month Days Avg Max Avg Min Max Max Min Min Total Daily Min Temp < 28 Daily Min Temp < 32 Daily Max Temp > 90 Daily Max Temp > 100 Daily Rain > 0.01 Daily Rain > 0.1
Jan 2021 19 59 37.6 77 28.7 1.74 0 3 0 0 10 6

Upper Lake Climate Summary

Last Year

Last Year | Showing 1/1/20 - 12/31/20
as of 1/20/21 6:05 PM PST
Temperature (°F) Precip (in) Days
Month Days Avg Max Avg Min Max Max Min Min Total Daily Min Temp < 28 Daily Min Temp < 32 Daily Max Temp > 90 Daily Max Temp > 100 Daily Rain > 0.01 Daily Rain > 0.1
Jan 2020 31 55.3 34.7 71.4 26.1 3.74 3 13 0 0 17 11
Feb 2020 29 67.3 31.5 77.7 24.4 0 2 18 0 0 0 0
Mar 2020 31 60.7 34.8 81 28.2 1.51 0 8 0 0 9 6
Apr 2020 30 70.7 42.8 86.2 27.9 1.49 1 2 0 0 5 4
May 2020 31 76.5 45.7 97.5 34.4 1.54 0 0 7 0 7 5
Jun 2020 30 85.9 51.7 104.1 37.6 0.01 0 0 12 3 0 0
Jul 2020 31 94.1 53.5 99.6 46.4 0 0 0 26 0 0 0
Aug 2020 31 94.8 56.1 105.6 48 0.11 0 0 27 3 2 0
Sep 2020 30 89.6 49.5 108.3 41.1 0 0 0 14 4 0 0
Oct 2020 31 86 42 97.7 32.8 0 0 0 11 0 0 0
Nov 2020 30 64.2 31.9 86.2 22.6 1.32 12 14 0 0 5 3
Dec 2020 31 59 31.1 73 25.5 1.75 9 22 0 0 8 6
Total 366 - - - - 11.47 27 77 97 10 53 35
Average 30.5 75.3 42.1 - - 0.96 2.2 6.4 8.1 0.8 4.4 2.9
Maximum 31 94.8 56.1 108.3 - 3.74 12 22 27 4 17 11
Minimum 29 55.3 31.1 - 22.6 0 0 0 0 0 0 0